Time;durP1;ratioP1;P1;durP2;ratioP2;P2;SDS_P1;SDS_P2;PMS_P1;PMS_P2;Temp;Humidity;BMP_temperature;BMP_pressure;BME280_temperature;BME280_humidity;BME280_pressure;Samples;Min_cycle;Max_cycle;Signal;HPM_P1;HPM_P2
2021/01/08 00:08:25;;;;;;;8.93;4.60;;;2.20;99.90;;;;;;6746794;88;20192;-76
2021/01/08 00:18:26;;;;;;;8.57;4.32;;;2.20;99.90;;;;;;6743192;88;20179;-77
2021/01/08 00:28:26;;;;;;;6.65;3.67;;;2.30;99.90;;;;;;6745779;88;20250;-77
2021/01/08 00:38:27;;;;;;;6.80;3.67;;;2.30;99.90;;;;;;6734336;77;20705;-75
2021/01/08 00:48:27;;;;;;;6.97;3.42;;;2.30;99.90;;;;;;6707075;88;20288;-74
2021/01/08 00:58:28;;;;;;;8.20;3.80;;;2.20;99.90;;;;;;6708910;88;20240;-74
2021/01/08 01:08:29;;;;;;;6.55;3.28;;;2.10;99.90;;;;;;6706377;88;21045;-75
2021/01/08 01:18:29;;;;;;;6.72;3.47;;;2.20;99.90;;;;;;6708822;88;20769;-74
2021/01/08 01:28:30;;;;;;;6.32;3.60;;;2.20;99.90;;;;;;6708649;88;20207;-74
2021/01/08 01:38:30;;;;;;;6.70;3.37;;;2.30;99.90;;;;;;6711262;88;20191;-74
2021/01/08 01:48:32;;;;;;;7.95;3.65;;;2.20;99.90;;;;;;6727266;88;20190;-74
2021/01/08 01:58:33;;;;;;;7.05;3.83;;;2.10;99.90;;;;;;6727237;88;20234;-75
2021/01/08 02:08:37;;;;;;;8.20;4.07;;;2.00;99.90;;;;;;6724709;88;20217;-74
2021/01/08 02:18:38;;;;;;;7.22;3.80;;;1.80;99.90;;;;;;6725523;88;20511;-74
2021/01/08 02:28:39;;;;;;;6.00;3.22;;;1.70;99.90;;;;;;6722439;88;20193;-75
2021/01/08 02:38:40;;;;;;;6.47;3.10;;;1.60;99.90;;;;;;6724044;88;20220;-75
2021/01/08 02:48:41;;;;;;;5.75;3.10;;;1.60;99.90;;;;;;6727714;88;20174;-75
2021/01/08 02:58:43;;;;;;;6.20;3.30;;;1.50;99.90;;;;;;6728926;88;20613;-75
2021/01/08 03:08:44;;;;;;;7.00;3.03;;;1.50;99.90;;;;;;6725161;88;20613;-74
2021/01/08 03:18:45;;;;;;;5.80;3.17;;;1.50;99.90;;;;;;6724414;88;20232;-75
2021/01/08 03:28:45;;;;;;;6.43;3.70;;;1.50;99.90;;;;;;6726412;88;20208;-75
2021/01/08 03:38:46;;;;;;;8.63;4.28;;;1.60;99.90;;;;;;6727514;88;20248;-75
2021/01/08 03:48:46;;;;;;;8.30;4.45;;;1.50;99.90;;;;;;6726874;88;20210;-75
2021/01/08 03:58:47;;;;;;;9.50;4.87;;;1.50;99.90;;;;;;6726520;88;20212;-75
2021/01/08 04:08:48;;;;;;;9.32;5.82;;;1.50;99.90;;;;;;6729105;88;20185;-75
2021/01/08 04:18:48;;;;;;;10.20;6.50;;;1.60;99.90;;;;;;6727448;88;20232;-75
2021/01/08 04:28:49;;;;;;;12.00;7.30;;;1.60;99.90;;;;;;6728318;88;20178;-74
2021/01/08 04:38:49;;;;;;;13.98;7.93;;;1.60;99.90;;;;;;6726035;88;20313;-75
2021/01/08 04:48:54;;;;;;;14.80;8.45;;;1.50;99.90;;;;;;6731827;88;20303;-75
2021/01/08 04:58:55;;;;;;;16.12;8.95;;;1.40;99.90;;;;;;6725313;88;20253;-74
2021/01/08 05:08:56;;;;;;;15.02;8.85;;;1.40;99.90;;;;;;6728337;88;20310;-75
2021/01/08 05:18:58;;;;;;;15.65;9.20;;;1.40;99.90;;;;;;6726208;88;20228;-74
2021/01/08 05:29:00;;;;;;;16.95;9.65;;;1.40;99.90;;;;;;6726281;88;20187;-75
2021/01/08 05:39:03;;;;;;;17.15;8.63;;;1.40;99.90;;;;;;6727079;88;20761;-75
2021/01/08 05:49:07;;;;;;;17.40;9.80;;;1.30;99.90;;;;;;6728553;88;20673;-75
2021/01/08 05:59:08;;;;;;;16.75;9.30;;;1.30;99.90;;;;;;6728507;88;20222;-75
2021/01/08 06:09:14;;;;;;;16.67;9.82;;;1.30;99.90;;;;;;6724339;88;20215;-75
2021/01/08 06:19:15;;;;;;;17.65;9.68;;;1.30;99.90;;;;;;6726349;88;20679;-76
2021/01/08 06:29:21;;;;;;;17.33;9.95;;;1.20;99.90;;;;;;6733195;88;20217;-74
2021/01/08 06:39:23;;;;;;;16.62;9.23;;;1.20;99.90;;;;;;6734138;88;20265;-75
2021/01/08 06:49:24;;;;;;;19.08;10.38;;;1.20;99.90;;;;;;6732323;88;20207;-75
2021/01/08 06:59:33;;;;;;;16.42;9.55;;;1.10;99.90;;;;;;6736645;88;20189;-76
2021/01/08 07:09:35;;;;;;;19.75;9.30;;;1.20;99.90;;;;;;6735294;88;20176;-76
2021/01/08 07:19:39;;;;;;;16.70;9.82;;;1.20;99.90;;;;;;6737285;88;20215;-77
2021/01/08 07:30:01;;;;;;;17.15;9.40;;;1.20;99.90;;;;;;6735568;88;20185;-76
2021/01/08 07:40:04;;;;;;;18.35;9.77;;;1.10;99.90;;;;;;6729117;88;20820;-76
2021/01/08 07:50:09;;;;;;;18.12;9.95;;;1.10;99.90;;;;;;6735399;88;20268;-74
2021/01/08 08:00:26;;;;;;;16.73;9.83;;;1.10;99.90;;;;;;6731347;88;20198;-75
2021/01/08 08:10:29;;;;;;;19.05;10.68;;;1.20;99.90;;;;;;6730242;88;20698;-75
2021/01/08 08:20:29;;;;;;;19.67;10.52;;;1.30;99.90;;;;;;6733549;88;20701;-76
2021/01/08 08:30:30;;;;;;;18.30;10.18;;;1.30;99.90;;;;;;6733246;88;20238;-75
2021/01/08 08:40:31;;;;;;;17.92;10.32;;;1.40;99.90;;;;;;6735208;88;20239;-74
2021/01/08 08:50:33;;;;;;;19.25;10.70;;;1.40;99.90;;;;;;6731986;88;20208;-75
2021/01/08 09:00:36;;;;;;;16.33;9.23;;;1.50;99.90;;;;;;6730487;88;20203;-76
2021/01/08 09:10:41;;;;;;;19.12;10.63;;;1.60;99.90;;;;;;6734159;88;20206;-76
2021/01/08 09:20:54;;;;;;;15.43;9.07;;;1.60;99.90;;;;;;6733051;88;20204;-76
2021/01/08 09:30:55;;;;;;;19.90;10.63;;;1.70;99.90;;;;;;6732329;88;20718;-76
2021/01/08 09:40:57;;;;;;;16.10;9.43;;;1.80;99.90;;;;;;6732460;88;20226;-76
2021/01/08 09:51:02;;;;;;;18.90;9.52;;;1.90;99.90;;;;;;6731875;88;20228;-76
2021/01/08 10:01:03;;;;;;;15.27;8.57;;;2.00;99.90;;;;;;6731439;88;20206;-75
2021/01/08 10:11:05;;;;;;;18.85;9.10;;;2.10;99.90;;;;;;6730321;88;20195;-76
2021/01/08 10:21:07;;;;;;;15.32;8.65;;;2.00;99.90;;;;;;6727805;88;20229;-76
2021/01/08 10:31:08;;;;;;;20.58;8.70;;;2.10;99.90;;;;;;6728393;88;20186;-76
2021/01/08 10:41:09;;;;;;;17.58;9.50;;;2.20;99.90;;;;;;6733225;88;20214;-76
2021/01/08 10:51:09;;;;;;;16.40;8.90;;;2.10;99.90;;;;;;6741197;88;20167;-76
2021/01/08 11:01:13;;;;;;;16.73;8.90;;;2.00;99.90;;;;;;6739971;88;20166;-75
2021/01/08 11:11:17;;;;;;;17.50;8.65;;;2.10;99.90;;;;;;6745719;88;20599;-78
2021/01/08 11:21:21;;;;;;;17.45;8.35;;;2.10;99.90;;;;;;6738944;88;20212;-75
2021/01/08 11:31:42;;;;;;;14.60;7.70;;;2.20;99.90;;;;;;6730088;88;20630;-76
2021/01/08 11:41:42;;;;;;;18.15;8.85;;;2.10;99.90;;;;;;6726600;88;20182;-75
2021/01/08 11:51:43;;;;;;;16.48;8.45;;;2.10;99.90;;;;;;6728550;88;20199;-76
2021/01/08 12:01:44;;;;;;;15.13;8.32;;;2.10;99.90;;;;;;6729491;88;20269;-76
2021/01/08 12:11:45;;;;;;;16.27;8.23;;;2.10;99.90;;;;;;6731129;88;20191;-76
2021/01/08 12:21:46;;;;;;;14.90;7.53;;;2.30;99.90;;;;;;6732486;88;20266;-75
2021/01/08 12:31:47;;;;;;;13.85;7.50;;;2.30;99.90;;;;;;6732943;88;20289;-76
2021/01/08 12:41:47;;;;;;;15.60;7.57;;;2.30;99.90;;;;;;6732545;88;20294;-75
2021/01/08 12:51:50;;;;;;;14.45;7.87;;;2.30;99.90;;;;;;6730059;88;20256;-76
2021/01/08 13:01:57;;;;;;;15.38;6.93;;;2.30;99.90;;;;;;6730328;88;20807;-75
2021/01/08 13:11:58;;;;;;;15.02;7.43;;;2.40;99.90;;;;;;6731028;88;20181;-76
2021/01/08 13:21:58;;;;;;;15.45;7.87;;;2.50;99.90;;;;;;6732164;88;20610;-75
2021/01/08 13:31:59;;;;;;;17.73;8.23;;;2.50;99.90;;;;;;6730822;88;20676;-75
2021/01/08 13:42:05;;;;;;;16.08;8.05;;;2.50;99.90;;;;;;6730447;88;20209;-76
2021/01/08 13:52:10;;;;;;;;;;;2.60;99.90;;;;;;6733768;88;20221;-75
2021/01/08 14:02:11;;;;;;;15.63;8.10;;;2.50;99.90;;;;;;6737424;88;20061;-76
2021/01/08 14:12:11;;;;;;;14.95;7.80;;;2.50;99.90;;;;;;6731151;88;20660;-75
2021/01/08 14:22:12;;;;;;;14.95;7.82;;;2.50;99.90;;;;;;6730799;88;20302;-76
2021/01/08 14:32:13;;;;;;;13.75;7.50;;;2.60;99.90;;;;;;6726511;88;20636;-75
2021/01/08 14:42:13;;;;;;;13.07;6.57;;;2.60;99.90;;;;;;6727287;88;20190;-76
2021/01/08 14:52:14;;;;;;;14.63;7.72;;;2.70;99.90;;;;;;6728003;88;20193;-75
2021/01/08 15:02:14;;;;;;;16.60;7.25;;;2.70;99.90;;;;;;6730529;88;20171;-74
2021/01/08 15:12:15;;;;;;;13.50;6.80;;;2.60;99.90;;;;;;6741101;88;20192;-75
2021/01/08 15:22:15;;;;;;;15.07;7.40;;;2.60;99.90;;;;;;6729756;88;20288;-76
2021/01/08 15:32:16;;;;;;;14.15;7.62;;;2.50;99.90;;;;;;6732500;88;20220;-76
2021/01/08 15:42:16;;;;;;;13.70;7.32;;;2.50;99.90;;;;;;6734663;88;20199;-76
2021/01/08 15:52:17;;;;;;;16.10;6.95;;;2.50;99.90;;;;;;6736005;88;20247;-75
2021/01/08 16:02:18;;;;;;;15.32;7.62;;;2.40;99.90;;;;;;6737052;88;20182;-75
2021/01/08 16:12:21;;;;;;;14.50;7.47;;;2.40;99.90;;;;;;6747287;88;20192;-74
2021/01/08 16:22:22;;;;;;;15.55;7.80;;;2.40;99.90;;;;;;6746366;88;20221;-74
2021/01/08 16:32:29;;;;;;;16.90;8.27;;;2.50;99.90;;;;;;6741248;88;20278;-75
2021/01/08 16:42:30;;;;;;;17.05;7.45;;;2.40;99.90;;;;;;6740557;88;20282;-75
2021/01/08 16:52:30;;;;;;;15.30;7.87;;;2.40;99.90;;;;;;6746200;88;20180;-76
2021/01/08 17:02:31;;;;;;;17.60;8.57;;;2.30;99.90;;;;;;6741434;88;20667;-76
2021/01/08 17:12:31;;;;;;;19.50;9.80;;;2.30;99.90;;;;;;6740437;88;20233;-78
2021/01/08 17:22:32;;;;;;;18.52;9.07;;;2.40;99.90;;;;;;6739230;88;20214;-76
2021/01/08 17:32:32;;;;;;;19.52;9.70;;;2.40;99.90;;;;;;6733130;88;20657;-76
2021/01/08 17:42:33;;;;;;;20.60;9.93;;;2.40;99.90;;;;;;6732674;88;20220;-77
2021/01/08 17:52:33;;;;;;;20.48;9.45;;;2.40;99.90;;;;;;6734295;88;20338;-75
2021/01/08 18:02:34;;;;;;;17.42;9.13;;;2.40;99.90;;;;;;6730479;88;20192;-75
2021/01/08 18:12:37;;;;;;;19.25;9.00;;;2.50;99.90;;;;;;6733619;88;20189;-73
2021/01/08 18:22:39;;;;;;;18.17;8.57;;;2.40;99.90;;;;;;6740279;88;20198;-74
2021/01/08 18:32:39;;;;;;;18.33;9.10;;;2.50;99.90;;;;;;6729847;88;20764;-74
2021/01/08 18:42:40;;;;;;;17.85;8.38;;;2.50;99.90;;;;;;6718757;88;20321;-75
2021/01/08 18:52:43;;;;;;;14.52;8.00;;;2.50;99.90;;;;;;6722273;88;21283;-74
2021/01/08 19:02:44;;;;;;;15.95;8.43;;;2.50;99.90;;;;;;6721552;88;20166;-75
2021/01/08 19:12:44;;;;;;;15.80;8.13;;;2.50;99.90;;;;;;6723037;88;20731;-75
2021/01/08 19:22:45;;;;;;;17.92;8.23;;;2.40;99.90;;;;;;6721332;88;20807;-75
2021/01/08 19:32:46;;;;;;;14.75;7.53;;;2.40;99.90;;;;;;6720674;88;20597;-75
2021/01/08 19:42:46;;;;;;;17.45;8.48;;;2.40;99.90;;;;;;6716113;88;20630;-75
2021/01/08 19:52:47;;;;;;;19.83;8.90;;;2.40;99.90;;;;;;6717504;88;20282;-74
2021/01/08 20:02:48;;;;;;;18.37;9.02;;;2.40;99.90;;;;;;6716263;88;21227;-74
2021/01/08 20:12:48;;;;;;;17.60;8.93;;;2.10;99.90;;;;;;6724776;88;20533;-74
2021/01/08 20:22:49;;;;;;;20.12;9.80;;;2.20;99.90;;;;;;6722297;88;20221;-74
2021/01/08 20:32:50;;;;;;;18.62;9.23;;;2.00;99.90;;;;;;6724487;88;20318;-74
2021/01/08 20:42:50;;;;;;;19.30;9.18;;;1.90;99.90;;;;;;6723531;88;20184;-75
2021/01/08 20:52:52;;;;;;;18.58;7.90;;;1.70;99.90;;;;;;6722746;88;20253;-74
2021/01/08 21:02:54;;;;;;;16.48;7.30;;;1.40;99.90;;;;;;6724544;88;20207;-74
2021/01/08 21:12:55;;;;;;;16.20;8.15;;;1.30;99.90;;;;;;6723522;88;20210;-75
2021/01/08 21:22:57;;;;;;;17.05;7.80;;;1.10;99.90;;;;;;6727906;88;20702;-76
2021/01/08 21:32:57;;;;;;;18.75;8.43;;;1.00;99.90;;;;;;6726645;88;20225;-76
2021/01/08 21:42:58;;;;;;;19.25;8.43;;;1.00;99.90;;;;;;6730841;88;20262;-75
2021/01/08 21:52:58;;;;;;;19.58;8.70;;;1.10;99.90;;;;;;6726237;88;20190;-76
2021/01/08 22:02:59;;;;;;;17.15;7.37;;;1.20;99.90;;;;;;6728329;88;20205;-76
2021/01/08 22:12:59;;;;;;;22.70;8.82;;;1.10;99.90;;;;;;6722648;88;20302;-76
2021/01/08 22:23:00;;;;;;;18.65;8.38;;;0.90;99.90;;;;;;6730480;88;20194;-75
2021/01/08 22:33:00;;;;;;;18.05;8.35;;;0.80;99.90;;;;;;6736016;88;20203;-75
2021/01/08 22:43:01;;;;;;;16.42;7.93;;;0.60;99.90;;;;;;6736566;88;20205;-78
2021/01/08 22:53:01;;;;;;;17.98;8.60;;;0.60;99.90;;;;;;6727871;88;20221;-77
2021/01/08 23:03:03;;;;;;;18.17;8.15;;;0.70;99.90;;;;;;6728638;88;20185;-77
2021/01/08 23:13:06;;;;;;;21.60;7.75;;;0.90;99.90;;;;;;6726595;88;20356;-77
2021/01/08 23:23:07;;;;;;;17.08;7.40;;;0.90;99.90;;;;;;6730211;88;20412;-75
2021/01/08 23:33:08;;;;;;;15.48;7.10;;;1.10;99.90;;;;;;6726635;88;20210;-77
2021/01/08 23:43:08;;;;;;;16.62;6.85;;;1.10;99.90;;;;;;6725862;88;20212;-76
2021/01/08 23:53:09;;;;;;;17.17;7.45;;;1.00;99.90;;;;;;6730205;88;21383;-76
